Time;durP1;ratioP1;P1;durP2;ratioP2;P2;SDS_P1;SDS_P2;PMS_P1;PMS_P2;Temp;Humidity;BMP_temperature;BMP_pressure;BME280_temperature;BME280_humidity;BME280_pressure;Samples;Min_cycle;Max_cycle;Signal;HPM_P1;HPM_P2
2023/01/29 00:00:38;;;;;;;53.00;26.88;;;;;;;;;;5033319;28;20080;-75
2023/01/29 00:03:04;;;;;;;50.13;27.17;;;;;;;;;;5033356;28;20045;-76
2023/01/29 00:05:30;;;;;;;50.70;25.60;;;;;;;;;;5033035;28;20018;-76
2023/01/29 00:07:57;;;;;;;48.88;24.40;;;;;;;;;;5033556;28;20408;-74
2023/01/29 00:10:23;;;;;;;45.33;25.10;;;;;;;;;;5032438;28;20029;-76
2023/01/29 00:12:50;;;;;;;51.58;26.60;;;;;;;;;;5032406;28;20028;-76
2023/01/29 00:15:16;;;;;;;49.33;25.05;;;;;;;;;;5032741;28;20063;-73
2023/01/29 00:17:43;;;;;;;48.30;26.10;;;;;;;;;;5032303;28;20060;-73
2023/01/29 00:20:09;;;;;;;50.65;25.65;;;;;;;;;;5032884;28;20022;-74
2023/01/29 00:22:35;;;;;;;49.35;25.05;;;;;;;;;;5032709;28;20022;-74
2023/01/29 00:25:01;;;;;;;49.28;24.80;;;;;;;;;;5033279;28;20045;-74
2023/01/29 00:27:27;;;;;;;45.60;24.35;;;;;;;;;;5032670;28;20037;-76
2023/01/29 00:30:11;;;;;;;49.08;23.95;;;;;;;;;;5032574;28;20040;-75
2023/01/29 00:32:37;;;;;;;36.05;18.13;;;;;;;;;;5032481;28;20045;-75
2023/01/29 00:35:03;;;;;;;49.75;24.20;;;;;;;;;;5032762;28;20034;-73
2023/01/29 00:37:29;;;;;;;47.90;23.58;;;;;;;;;;5032245;28;20033;-75
2023/01/29 00:39:56;;;;;;;41.50;22.63;;;;;;;;;;5032751;28;20033;-73
2023/01/29 00:45:06;;;;;;;42.08;23.33;;;;;;;;;;5033237;28;20175;-73
2023/01/29 00:47:32;;;;;;;41.97;23.35;;;;;;;;;;5032064;28;20029;-75
2023/01/29 00:49:59;;;;;;;41.65;22.35;;;;;;;;;;5032547;28;20037;-73
2023/01/29 00:52:25;;;;;;;47.45;22.90;;;;;;;;;;5032434;28;20057;-74
2023/01/29 00:54:52;;;;;;;38.83;20.90;;;;;;;;;;5032573;28;20104;-72
2023/01/29 00:57:18;;;;;;;48.90;22.20;;;;;;;;;;5031936;28;20040;-73
2023/01/29 00:59:44;;;;;;;48.10;22.77;;;;;;;;;;5032345;28;20093;-73
2023/01/29 01:04:55;;;;;;;42.72;21.63;;;;;;;;;;5047741;28;20036;-76
2023/01/29 01:07:21;;;;;;;46.35;23.02;;;;;;;;;;5053111;28;20025;-75
2023/01/29 01:12:31;;;;;;;43.72;22.00;;;;;;;;;;5052178;28;20036;-74
2023/01/29 01:14:57;;;;;;;47.60;22.70;;;;;;;;;;5054340;28;20104;-75
2023/01/29 01:17:23;;;;;;;43.38;21.40;;;;;;;;;;5052471;28;20047;-73
2023/01/29 01:19:49;;;;;;;47.30;21.00;;;;;;;;;;5051904;28;20024;-75
2023/01/29 01:22:15;;;;;;;43.67;21.13;;;;;;;;;;5051793;28;20100;-77
2023/01/29 01:24:41;;;;;;;42.92;20.58;;;;;;;;;;5052197;28;20440;-76
2023/01/29 01:27:07;;;;;;;40.67;19.92;;;;;;;;;;5051391;28;20025;-75
2023/01/29 01:29:33;;;;;;;41.38;20.23;;;;;;;;;;5051852;28;20036;-75
2023/01/29 01:32:00;;;;;;;40.13;20.65;;;;;;;;;;5051654;28;20398;-75
2023/01/29 01:34:26;;;;;;;44.65;20.70;;;;;;;;;;5052635;28;20033;-74
2023/01/29 01:36:52;;;;;;;42.15;20.98;;;;;;;;;;5050893;28;20025;-75
2023/01/29 01:39:18;;;;;;;42.55;21.02;;;;;;;;;;5051770;28;20036;-76
2023/01/29 01:41:45;;;;;;;45.67;21.60;;;;;;;;;;5051572;28;20048;-75
2023/01/29 01:44:29;;;;;;;39.15;19.45;;;;;;;;;;5051667;28;20140;-75
2023/01/29 01:46:55;;;;;;;41.08;20.42;;;;;;;;;;5051112;28;20053;-76
2023/01/29 01:49:23;;;;;;;42.75;21.02;;;;;;;;;;5051603;28;20488;-76
2023/01/29 01:51:50;;;;;;;42.47;21.33;;;;;;;;;;5051663;28;20033;-74
2023/01/29 01:54:34;;;;;;;39.15;21.00;;;;;;;;;;5051845;28;20025;-76
2023/01/29 01:57:14;;;;;;;41.87;20.40;;;;;;;;;;5050941;28;20036;-75
2023/01/29 01:59:40;;;;;;;41.25;19.83;;;;;;;;;;5051903;28;20096;-74
2023/01/29 02:10:25;;;;;;;42.08;20.30;;;;;;;;;;5051501;28;20036;-75
2023/01/29 02:12:51;;;;;;;40.33;19.73;;;;;;;;;;5050919;28;20033;-74
2023/01/29 02:15:17;;;;;;;41.92;20.35;;;;;;;;;;5051800;28;20363;-73
2023/01/29 02:17:47;;;;;;;37.25;18.15;;;;;;;;;;5051514;28;20308;-74
2023/01/29 02:20:25;;;;;;;37.25;19.25;;;;;;;;;;5051671;28;20021;-75
2023/01/29 02:22:55;;;;;;;39.03;18.98;;;;;;;;;;5051246;28;20032;-75
2023/01/29 02:25:39;;;;;;;45.47;19.38;;;;;;;;;;5051059;28;20025;-74
2023/01/29 02:28:13;;;;;;;38.42;18.90;;;;;;;;;;5051770;28;20029;-75
2023/01/29 02:30:46;;;;;;;43.22;19.77;;;;;;;;;;5051348;28;20025;-76
2023/01/29 02:33:24;;;;;;;37.53;18.63;;;;;;;;;;5051897;28;20393;-75
2023/01/29 02:35:55;;;;;;;44.38;19.05;;;;;;;;;;5054501;28;20021;-76
2023/01/29 02:38:45;;;;;;;38.70;17.85;;;;;;;;;;5055248;28;20532;-77
2023/01/29 02:41:31;;;;;;;39.92;18.60;;;;;;;;;;5055033;28;20024;-76
2023/01/29 02:44:04;;;;;;;40.15;18.63;;;;;;;;;;5014040;28;20513;-73
2023/01/29 02:46:57;;;;;;;38.55;18.25;;;;;;;;;;5054160;28;20029;-74
2023/01/29 02:49:36;;;;;;;36.33;18.00;;;;;;;;;;5051206;28;20033;-74
2023/01/29 02:52:11;;;;;;;40.03;19.10;;;;;;;;;;5054288;28;20121;-73
2023/01/29 02:54:44;;;;;;;39.05;18.92;;;;;;;;;;5054296;28;20097;-75
2023/01/29 02:57:15;;;;;;;36.00;18.52;;;;;;;;;;5053971;28;20033;-74
2023/01/29 02:59:43;;;;;;;37.38;18.75;;;;;;;;;;5054577;28;20106;-73
2023/01/29 03:02:21;;;;;;;41.75;18.95;;;;;;;;;;5054038;28;20021;-74
2023/01/29 03:04:50;;;;;;;43.97;19.30;;;;;;;;;;5054038;28;20542;-74
2023/01/29 03:10:03;;;;;;;35.20;16.80;;;;;;;;;;5054273;28;20107;-73
2023/01/29 03:12:33;;;;;;;50.60;19.27;;;;;;;;;;5053863;28;20033;-73
2023/01/29 03:15:10;;;;;;;40.25;19.02;;;;;;;;;;5053897;28;20111;-72
2023/01/29 03:17:48;;;;;;;34.30;16.05;;;;;;;;;;5053370;28;20065;-74
2023/01/29 03:20:19;;;;;;;40.72;18.10;;;;;;;;;;5053851;28;20029;-75
2023/01/29 03:22:49;;;;;;;40.08;17.35;;;;;;;;;;5053717;28;20505;-75
2023/01/29 03:33:48;;;;;;;35.50;17.13;;;;;;;;;;5054120;28;20103;-74
2023/01/29 03:36:18;;;;;;;38.38;16.55;;;;;;;;;;5052792;28;20033;-75
2023/01/29 03:38:44;;;;;;;34.45;16.58;;;;;;;;;;5051873;28;20025;-73
2023/01/29 03:41:14;;;;;;;32.05;16.35;;;;;;;;;;5040014;28;20028;-73
2023/01/29 03:43:49;;;;;;;33.67;16.60;;;;;;;;;;5045148;28;20063;-73
2023/01/29 03:46:17;;;;;;;35.70;15.77;;;;;;;;;;5044891;28;20059;-74
2023/01/29 03:48:59;;;;;;;39.47;16.73;;;;;;;;;;5038579;28;20024;-74
2023/01/29 03:51:30;;;;;;;33.40;16.50;;;;;;;;;;5042533;28;20120;-75
2023/01/29 03:54:03;;;;;;;36.33;16.00;;;;;;;;;;5041609;28;20100;-74
2023/01/29 03:56:41;;;;;;;38.38;16.02;;;;;;;;;;5046345;28;20483;-74
2023/01/29 03:59:10;;;;;;;32.50;15.43;;;;;;;;;;5044713;28;20025;-75
2023/01/29 04:02:09;;;;;;;31.80;15.48;;;;;;;;;;5041547;28;20044;-73
2023/01/29 04:04:36;;;;;;;33.63;14.95;;;;;;;;;;5012449;28;20037;-74
2023/01/29 04:07:11;;;;;;;29.40;14.95;;;;;;;;;;5043677;28;20081;-72
2023/01/29 04:09:40;;;;;;;37.83;15.30;;;;;;;;;;5042272;28;20077;-72
2023/01/29 04:12:10;;;;;;;32.70;15.55;;;;;;;;;;5044370;28;20020;-73
2023/01/29 04:14:37;;;;;;;32.30;16.60;;;;;;;;;;5047959;28;20487;-72
2023/01/29 04:17:08;;;;;;;27.52;14.88;;;;;;;;;;5040442;28;20394;-72
2023/01/29 04:19:35;;;;;;;29.30;16.20;;;;;;;;;;5042986;28;20497;-74
2023/01/29 04:22:06;;;;;;;28.95;15.30;;;;;;;;;;5040757;28;20402;-74
2023/01/29 04:24:33;;;;;;;34.95;16.80;;;;;;;;;;5040676;28;20030;-74
2023/01/29 04:27:19;;;;;;;31.35;16.35;;;;;;;;;;5046248;28;20032;-74
2023/01/29 04:29:48;;;;;;;37.75;17.15;;;;;;;;;;5041015;28;20028;-71
2023/01/29 04:32:17;;;;;;;41.65;17.30;;;;;;;;;;5042404;28;20033;-72
2023/01/29 04:35:00;;;;;;;33.85;16.60;;;;;;;;;;5038483;28;20021;-71
2023/01/29 04:37:34;;;;;;;31.00;16.48;;;;;;;;;;5040620;28;20143;-72
2023/01/29 04:40:02;;;;;;;38.50;18.67;;;;;;;;;;5040780;28;20025;-71
2023/01/29 04:42:42;;;;;;;33.60;16.90;;;;;;;;;;5043296;28;20263;-72
2023/01/29 04:45:17;;;;;;;31.30;16.60;;;;;;;;;;5035623;28;20116;-73
2023/01/29 04:47:50;;;;;;;31.70;17.45;;;;;;;;;;5031986;28;20025;-70
2023/01/29 04:50:42;;;;;;;33.20;17.77;;;;;;;;;;5032662;28;20026;-70
2023/01/29 04:53:18;;;;;;;34.53;17.67;;;;;;;;;;5029358;28;20272;-71
2023/01/29 04:56:01;;;;;;;39.13;17.35;;;;;;;;;;5031371;28;20072;-72
2023/01/29 04:58:29;;;;;;;34.85;16.95;;;;;;;;;;5032158;28;20057;-74
2023/01/29 05:00:57;;;;;;;34.40;18.02;;;;;;;;;;5032051;28;20108;-73
2023/01/29 05:03:25;;;;;;;36.00;18.33;;;;;;;;;;5032063;28;20032;-73
2023/01/29 05:05:52;;;;;;;37.40;17.88;;;;;;;;;;5031494;28;20125;-72
2023/01/29 05:08:21;;;;;;;36.88;18.77;;;;;;;;;;5032003;28;20163;-72
2023/01/29 05:10:48;;;;;;;38.55;18.30;;;;;;;;;;5032132;28;20025;-72
2023/01/29 05:13:14;;;;;;;34.35;17.55;;;;;;;;;;5031849;28;20033;-74
2023/01/29 05:15:46;;;;;;;31.88;18.17;;;;;;;;;;5031605;28;20096;-74
2023/01/29 05:18:12;;;;;;;38.00;18.88;;;;;;;;;;5032306;28;20030;-74
2023/01/29 05:20:39;;;;;;;30.45;17.33;;;;;;;;;;5031832;28;20026;-74
2023/01/29 05:23:09;;;;;;;35.97;18.17;;;;;;;;;;5031812;28;20490;-73
2023/01/29 05:25:35;;;;;;;35.28;18.13;;;;;;;;;;5031391;28;20356;-74
2023/01/29 05:28:12;;;;;;;34.33;17.77;;;;;;;;;;5031941;28;20027;-74
2023/01/29 05:30:39;;;;;;;37.30;18.17;;;;;;;;;;5031602;28;20025;-75
2023/01/29 05:33:11;;;;;;;39.58;18.70;;;;;;;;;;5031745;28;20065;-71
2023/01/29 05:35:37;;;;;;;37.80;18.88;;;;;;;;;;5031523;28;20384;-71
2023/01/29 05:38:03;;;;;;;29.80;16.08;;;;;;;;;;5031631;28;20101;-71
2023/01/29 05:40:29;;;;;;;35.20;17.38;;;;;;;;;;5031625;28;20040;-70
2023/01/29 05:42:54;;;;;;;35.08;18.27;;;;;;;;;;5031513;28;20022;-72
2023/01/29 05:45:20;;;;;;;33.47;16.85;;;;;;;;;;5031409;28;20029;-71
2023/01/29 05:47:47;;;;;;;32.45;17.58;;;;;;;;;;5031569;28;20056;-71
2023/01/29 05:50:13;;;;;;;34.80;18.17;;;;;;;;;;5031633;28;20030;-71
2023/01/29 05:52:39;;;;;;;37.60;18.52;;;;;;;;;;5031454;28;20159;-71
2023/01/29 05:55:06;;;;;;;33.70;18.23;;;;;;;;;;5031652;28;20029;-75
2023/01/29 05:57:32;;;;;;;30.63;17.70;;;;;;;;;;5031016;28;20099;-73
2023/01/29 05:59:57;;;;;;;35.05;18.60;;;;;;;;;;5031688;28;20514;-71
2023/01/29 06:02:23;;;;;;;38.45;18.95;;;;;;;;;;5031563;28;20025;-71
2023/01/29 06:04:52;;;;;;;35.33;18.63;;;;;;;;;;5031774;28;20021;-70
2023/01/29 06:07:18;;;;;;;37.22;19.67;;;;;;;;;;5031031;28;20052;-73
2023/01/29 06:09:44;;;;;;;34.42;18.83;;;;;;;;;;5034737;28;20219;-72
2023/01/29 06:12:10;;;;;;;33.78;17.92;;;;;;;;;;5036032;28;20100;-77
2023/01/29 06:14:36;;;;;;;34.47;18.63;;;;;;;;;;5033975;28;20560;-73
2023/01/29 06:17:03;;;;;;;37.17;19.95;;;;;;;;;;5033979;28;20045;-72
2023/01/29 06:19:29;;;;;;;36.83;19.17;;;;;;;;;;5041367;28;20024;-72
2023/01/29 06:21:55;;;;;;;36.35;19.70;;;;;;;;;;5041531;28;20104;-72
2023/01/29 06:24:21;;;;;;;35.15;19.20;;;;;;;;;;5046017;28;20053;-70
2023/01/29 06:26:47;;;;;;;35.03;19.65;;;;;;;;;;5045132;28;20413;-73
2023/01/29 06:29:13;;;;;;;37.60;21.55;;;;;;;;;;5040766;28;20443;-71
2023/01/29 06:31:39;;;;;;;37.50;20.45;;;;;;;;;;5045551;28;20115;-72
2023/01/29 06:34:06;;;;;;;38.88;20.48;;;;;;;;;;5046162;28;20029;-72
2023/01/29 06:36:32;;;;;;;36.50;19.17;;;;;;;;;;5041312;28;20112;-72
2023/01/29 06:38:58;;;;;;;38.58;20.42;;;;;;;;;;5043031;28;20021;-71
2023/01/29 06:41:24;;;;;;;41.38;21.58;;;;;;;;;;5040620;28;20442;-71
2023/01/29 06:43:50;;;;;;;40.70;20.88;;;;;;;;;;5044763;28;20514;-70
2023/01/29 06:46:16;;;;;;;34.53;19.38;;;;;;;;;;5042269;28;20083;-71
2023/01/29 06:48:42;;;;;;;40.88;22.00;;;;;;;;;;5042129;28;20033;-71
2023/01/29 06:51:09;;;;;;;37.33;20.48;;;;;;;;;;5044861;28;20374;-71
2023/01/29 06:53:35;;;;;;;36.67;21.25;;;;;;;;;;5042505;28;20021;-71
2023/01/29 06:56:01;;;;;;;34.65;19.65;;;;;;;;;;5042155;28;20471;-71
2023/01/29 06:58:27;;;;;;;41.90;22.63;;;;;;;;;;5045693;28;20032;-71
2023/01/29 07:00:53;;;;;;;38.30;20.92;;;;;;;;;;5046813;28;20481;-70
2023/01/29 07:03:19;;;;;;;37.88;21.73;;;;;;;;;;5044178;28;20045;-73
2023/01/29 07:05:51;;;;;;;45.80;21.10;;;;;;;;;;5046248;28;20031;-72
2023/01/29 07:08:17;;;;;;;42.20;21.88;;;;;;;;;;5047013;28;20029;-72
2023/01/29 07:10:44;;;;;;;39.83;22.08;;;;;;;;;;5045306;28;20022;-71
2023/01/29 07:13:10;;;;;;;43.75;22.52;;;;;;;;;;5045192;28;20108;-71
2023/01/29 07:15:36;;;;;;;41.50;21.05;;;;;;;;;;5044875;28;20597;-71
2023/01/29 07:18:04;;;;;;;34.83;20.77;;;;;;;;;;5045562;28;20100;-72
2023/01/29 07:20:30;;;;;;;34.72;20.15;;;;;;;;;;5039630;28;20039;-72
2023/01/29 07:22:56;;;;;;;40.42;22.08;;;;;;;;;;5044391;28;20053;-73
2023/01/29 07:25:23;;;;;;;38.42;22.05;;;;;;;;;;5047585;28;20083;-74
2023/01/29 07:27:49;;;;;;;39.70;21.52;;;;;;;;;;5042034;28;20026;-72
2023/01/29 07:30:16;;;;;;;43.58;23.35;;;;;;;;;;5033770;28;20025;-72
2023/01/29 07:32:42;;;;;;;42.22;24.48;;;;;;;;;;5033564;28;20037;-73
2023/01/29 07:35:08;;;;;;;41.95;23.15;;;;;;;;;;5033751;28;20056;-71
2023/01/29 07:37:34;;;;;;;42.83;23.42;;;;;;;;;;5033275;28;20176;-74
2023/01/29 07:40:00;;;;;;;40.70;23.20;;;;;;;;;;5033439;28;20053;-72
2023/01/29 07:42:26;;;;;;;41.45;23.33;;;;;;;;;;5033811;28;20017;-71
2023/01/29 07:44:52;;;;;;;41.03;23.48;;;;;;;;;;5033298;28;20021;-71
2023/01/29 07:47:18;;;;;;;49.70;25.08;;;;;;;;;;5032736;28;20064;-73
2023/01/29 07:49:43;;;;;;;42.28;24.15;;;;;;;;;;5033265;28;20026;-72
2023/01/29 07:52:09;;;;;;;49.42;25.83;;;;;;;;;;5033560;28;20505;-72
2023/01/29 07:54:35;;;;;;;44.20;24.60;;;;;;;;;;5033467;28;20056;-71
2023/01/29 07:57:01;;;;;;;47.30;25.67;;;;;;;;;;5032907;28;20091;-74
2023/01/29 07:59:27;;;;;;;45.35;25.50;;;;;;;;;;5033542;28;20053;-72
2023/01/29 08:01:53;;;;;;;47.90;25.75;;;;;;;;;;5034006;28;20024;-72
2023/01/29 08:04:19;;;;;;;48.83;25.75;;;;;;;;;;5052556;28;20390;-71
2023/01/29 08:06:45;;;;;;;52.75;28.63;;;;;;;;;;5052219;28;20025;-73
2023/01/29 08:09:11;;;;;;;51.17;26.50;;;;;;;;;;5052899;28;20520;-71
2023/01/29 08:11:37;;;;;;;43.80;24.75;;;;;;;;;;5052720;28;20028;-72
2023/01/29 08:14:03;;;;;;;50.95;26.50;;;;;;;;;;5052707;28;20040;-72
2023/01/29 08:16:29;;;;;;;52.53;27.63;;;;;;;;;;5052342;28;20033;-71
2023/01/29 08:18:55;;;;;;;46.50;26.80;;;;;;;;;;5053109;28;20021;-73
2023/01/29 08:21:21;;;;;;;49.70;27.13;;;;;;;;;;5052467;28;20103;-74
2023/01/29 08:23:47;;;;;;;46.85;27.25;;;;;;;;;;5052722;28;20056;-74
2023/01/29 08:26:13;;;;;;;50.97;27.80;;;;;;;;;;5051935;28;20036;-71
2023/01/29 08:28:39;;;;;;;57.30;28.67;;;;;;;;;;5052375;28;20072;-72
2023/01/29 08:31:05;;;;;;;55.13;29.00;;;;;;;;;;5051845;28;20031;-71
2023/01/29 08:33:31;;;;;;;52.40;28.83;;;;;;;;;;5052425;28;20029;-71
2023/01/29 08:35:57;;;;;;;53.65;29.75;;;;;;;;;;5051812;28;20032;-71
2023/01/29 08:38:23;;;;;;;52.30;28.92;;;;;;;;;;5052571;28;20087;-73
2023/01/29 08:40:49;;;;;;;59.08;29.90;;;;;;;;;;5052224;28;20497;-74
2023/01/29 08:43:15;;;;;;;51.70;30.10;;;;;;;;;;5052209;28;20025;-72
2023/01/29 08:45:42;;;;;;;57.72;30.83;;;;;;;;;;5051673;28;20040;-72
2023/01/29 08:48:08;;;;;;;51.28;30.02;;;;;;;;;;5052408;28;20463;-73
2023/01/29 08:50:34;;;;;;;58.60;32.47;;;;;;;;;;5052334;28;20147;-71
2023/01/29 08:53:01;;;;;;;57.03;32.25;;;;;;;;;;5052197;28;20028;-71
2023/01/29 08:55:27;;;;;;;58.03;32.85;;;;;;;;;;5051971;28;20032;-72
2023/01/29 08:57:53;;;;;;;68.95;35.00;;;;;;;;;;5052359;28;20032;-70
2023/01/29 09:00:19;;;;;;;67.47;35.70;;;;;;;;;;5051453;28;20540;-74
2023/01/29 09:02:45;;;;;;;65.55;34.83;;;;;;;;;;5051330;28;20506;-72
2023/01/29 09:05:11;;;;;;;65.57;33.85;;;;;;;;;;5053397;28;20032;-75
2023/01/29 09:07:37;;;;;;;61.92;34.25;;;;;;;;;;5052889;28;20025;-74
2023/01/29 09:10:03;;;;;;;65.75;35.72;;;;;;;;;;5052903;28;20442;-73
2023/01/29 09:12:29;;;;;;;68.70;36.20;;;;;;;;;;5051971;28;20409;-73
2023/01/29 09:14:55;;;;;;;63.75;35.50;;;;;;;;;;5051769;28;20120;-74
2023/01/29 09:17:21;;;;;;;75.05;39.17;;;;;;;;;;5051523;28;20084;-75
2023/01/29 09:19:47;;;;;;;71.60;37.75;;;;;;;;;;5052134;28;20367;-72
2023/01/29 09:22:13;;;;;;;66.05;36.92;;;;;;;;;;5051896;28;20490;-74
2023/01/29 09:24:39;;;;;;;74.53;39.08;;;;;;;;;;5051926;28;20029;-73
2023/01/29 09:27:05;;;;;;;74.95;40.25;;;;;;;;;;5051364;28;20036;-72
2023/01/29 09:29:31;;;;;;;71.95;38.00;;;;;;;;;;5051868;28;20474;-72
2023/01/29 09:31:57;;;;;;;72.32;40.17;;;;;;;;;;5051735;28;20068;-73
2023/01/29 09:34:22;;;;;;;74.38;39.70;;;;;;;;;;5051843;28;20091;-73
2023/01/29 09:36:48;;;;;;;75.55;40.47;;;;;;;;;;5051051;28;20035;-72
2023/01/29 09:39:14;;;;;;;74.03;40.63;;;;;;;;;;5051856;28;20025;-71
2023/01/29 09:41:40;;;;;;;77.85;40.97;;;;;;;;;;5051060;28;20032;-73
2023/01/29 09:44:14;;;;;;;74.88;42.33;;;;;;;;;;5053492;28;20025;-74
2023/01/29 09:46:41;;;;;;;76.13;42.60;;;;;;;;;;5055023;28;20498;-72
2023/01/29 09:49:12;;;;;;;72.97;40.55;;;;;;;;;;5050266;28;20130;-73
2023/01/29 09:51:59;;;;;;;80.97;41.58;;;;;;;;;;5035699;28;20075;-73
2023/01/29 09:54:29;;;;;;;76.25;41.50;;;;;;;;;;5025140;28;20041;-71
2023/01/29 09:56:55;;;;;;;67.95;39.28;;;;;;;;;;5034822;28;20104;-72
2023/01/29 09:59:23;;;;;;;75.15;41.10;;;;;;;;;;5035635;28;20068;-72
2023/01/29 10:01:52;;;;;;;68.10;40.38;;;;;;;;;;5035200;28;20799;-71
2023/01/29 10:04:26;;;;;;;79.28;41.28;;;;;;;;;;5035529;28;20124;-75
2023/01/29 10:06:52;;;;;;;67.82;39.10;;;;;;;;;;5034800;28;20026;-71
2023/01/29 10:09:44;;;;;;;65.68;39.42;;;;;;;;;;5035212;28;20026;-71
2023/01/29 10:12:29;;;;;;;72.03;39.60;;;;;;;;;;5035018;28;20068;-72
2023/01/29 10:15:05;;;;;;;70.70;39.20;;;;;;;;;;5035167;28;20440;-71
2023/01/29 10:17:40;;;;;;;64.43;37.55;;;;;;;;;;5034526;28;20030;-72
2023/01/29 10:20:12;;;;;;;63.67;37.20;;;;;;;;;;5035333;28;20021;-72
2023/01/29 10:22:48;;;;;;;63.50;36.22;;;;;;;;;;5034776;28;20027;-72
2023/01/29 10:25:18;;;;;;;67.50;36.38;;;;;;;;;;5034932;28;20014;-74
2023/01/29 10:27:52;;;;;;;67.55;38.50;;;;;;;;;;5034417;28;20030;-72
2023/01/29 10:30:21;;;;;;;70.57;38.80;;;;;;;;;;5034633;28;20487;-72
2023/01/29 10:32:48;;;;;;;66.32;36.83;;;;;;;;;;5034619;28;20032;-71
2023/01/29 10:35:22;;;;;;;63.63;38.10;;;;;;;;;;5035048;28;20041;-75
2023/01/29 10:37:48;;;;;;;69.22;38.65;;;;;;;;;;5036158;28;20039;-74
2023/01/29 10:40:22;;;;;;;68.50;38.17;;;;;;;;;;5036879;28;20070;-74
2023/01/29 10:43:05;;;;;;;70.80;39.15;;;;;;;;;;5035074;28;20044;-75
2023/01/29 10:45:39;;;;;;;63.65;37.10;;;;;;;;;;5034466;28;20022;-73
2023/01/29 10:48:07;;;;;;;71.90;38.45;;;;;;;;;;5035799;28;20098;-72
2023/01/29 10:50:44;;;;;;;66.10;38.38;;;;;;;;;;5034544;28;20060;-72
2023/01/29 10:53:10;;;;;;;68.43;39.13;;;;;;;;;;5034505;28;20022;-73
2023/01/29 10:55:36;;;;;;;68.55;38.95;;;;;;;;;;5033415;28;20234;-74
2023/01/29 10:58:21;;;;;;;67.97;38.03;;;;;;;;;;5034455;28;20029;-73
2023/01/29 11:00:47;;;;;;;70.93;40.45;;;;;;;;;;5032802;28;20036;-73
2023/01/29 11:03:22;;;;;;;75.68;40.90;;;;;;;;;;5034288;28;20017;-73
2023/01/29 11:05:51;;;;;;;81.00;42.70;;;;;;;;;;5033571;28;20022;-73
2023/01/29 11:08:22;;;;;;;74.32;41.55;;;;;;;;;;5034275;28;20395;-75
2023/01/29 11:10:58;;;;;;;67.45;39.05;;;;;;;;;;5033834;28;20122;-71
2023/01/29 11:13:26;;;;;;;76.25;40.95;;;;;;;;;;5032444;28;20446;-72
2023/01/29 11:15:52;;;;;;;70.97;40.08;;;;;;;;;;5032342;28;20032;-72
2023/01/29 11:18:18;;;;;;;70.10;39.90;;;;;;;;;;5033037;28;20430;-71
2023/01/29 11:20:45;;;;;;;76.75;41.83;;;;;;;;;;5032816;28;20025;-71
2023/01/29 11:23:40;;;;;;;69.00;39.97;;;;;;;;;;5032988;28;20028;-71
2023/01/29 11:26:08;;;;;;;;;;;;;;;;;;5019717;28;20502;-71
2023/01/29 11:28:38;;;;;;;69.32;40.50;;;;;;;;;;5032900;28;20358;-71
2023/01/29 11:31:14;;;;;;;76.47;39.38;;;;;;;;;;5032722;28;20036;-72
2023/01/29 11:33:40;;;;;;;72.13;39.15;;;;;;;;;;5032779;28;20466;-73
2023/01/29 11:36:19;;;;;;;75.13;42.05;;;;;;;;;;5031980;28;20033;-72
2023/01/29 11:38:45;;;;;;;71.30;40.33;;;;;;;;;;5032739;28;20060;-72
2023/01/29 11:41:21;;;;;;;76.93;41.47;;;;;;;;;;5032771;28;20061;-72
2023/01/29 11:43:47;;;;;;;76.60;39.90;;;;;;;;;;5032445;28;20075;-71
2023/01/29 11:46:14;;;;;;;71.40;40.00;;;;;;;;;;5031905;28;20029;-73
2023/01/29 11:48:42;;;;;;;74.20;40.17;;;;;;;;;;5038363;28;20067;-74
2023/01/29 11:51:10;;;;;;;73.75;42.70;;;;;;;;;;5047102;28;20109;-74
2023/01/29 11:53:41;;;;;;;73.65;39.63;;;;;;;;;;5042505;28;20017;-74
2023/01/29 11:56:26;;;;;;;74.63;41.33;;;;;;;;;;5040941;28;20025;-75
2023/01/29 11:58:54;;;;;;;81.40;42.33;;;;;;;;;;5046755;28;20036;-73
2023/01/29 12:01:26;;;;;;;74.57;41.47;;;;;;;;;;5049851;28;20142;-74
2023/01/29 12:03:53;;;;;;;75.38;41.70;;;;;;;;;;5048369;28;20037;-73
2023/01/29 12:06:23;;;;;;;80.15;40.95;;;;;;;;;;5043192;28;20034;-74
2023/01/29 12:08:56;;;;;;;68.30;39.95;;;;;;;;;;5045962;28;20793;-74
2023/01/29 12:11:28;;;;;;;70.90;38.93;;;;;;;;;;5050419;28;20017;-74
2023/01/29 12:13:55;;;;;;;73.72;38.78;;;;;;;;;;5048251;28;20737;-73
2023/01/29 12:16:33;;;;;;;80.40;40.17;;;;;;;;;;5048162;28;20028;-74
2023/01/29 12:19:06;;;;;;;67.50;38.53;;;;;;;;;;5049136;28;20116;-74
2023/01/29 12:21:35;;;;;;;65.88;38.10;;;;;;;;;;5048878;28;20057;-74
2023/01/29 12:24:06;;;;;;;66.88;37.85;;;;;;;;;;5044350;28;20017;-73
2023/01/29 12:26:32;;;;;;;64.72;37.65;;;;;;;;;;5045888;28;20024;-72
2023/01/29 12:28:58;;;;;;;64.35;36.35;;;;;;;;;;5047858;28;20494;-74
2023/01/29 12:31:32;;;;;;;65.90;36.22;;;;;;;;;;5049030;28;20029;-74
2023/01/29 12:33:58;;;;;;;68.00;36.28;;;;;;;;;;5052612;28;20025;-74
2023/01/29 12:36:27;;;;;;;64.57;36.88;;;;;;;;;;5034644;28;20405;-73
2023/01/29 12:38:54;;;;;;;64.97;35.55;;;;;;;;;;5040394;28;20020;-72
2023/01/29 12:41:35;;;;;;;62.97;35.70;;;;;;;;;;5046346;28;20024;-72
2023/01/29 12:44:05;;;;;;;67.15;36.35;;;;;;;;;;5039731;28;20077;-74
2023/01/29 12:46:37;;;;;;;60.92;36.65;;;;;;;;;;5041711;28;20482;-75
2023/01/29 12:49:06;;;;;;;63.83;34.72;;;;;;;;;;5039992;28;20110;-73
2023/01/29 12:51:39;;;;;;;67.63;35.70;;;;;;;;;;5042425;28;20032;-74
2023/01/29 12:54:11;;;;;;;61.75;34.83;;;;;;;;;;5045091;28;20017;-72
2023/01/29 12:56:48;;;;;;;62.63;36.38;;;;;;;;;;5038527;28;20036;-72
2023/01/29 12:59:24;;;;;;;63.60;34.80;;;;;;;;;;5033202;28;20525;-71
2023/01/29 13:01:54;;;;;;;61.72;34.58;;;;;;;;;;5038380;28;20029;-71
2023/01/29 13:04:23;;;;;;;60.72;36.28;;;;;;;;;;5039273;28;20021;-72
2023/01/29 13:06:51;;;;;;;64.35;35.03;;;;;;;;;;5044427;28;20032;-72
2023/01/29 13:09:20;;;;;;;65.20;34.85;;;;;;;;;;5039259;28;20082;-72
2023/01/29 13:11:51;;;;;;;61.20;35.05;;;;;;;;;;5032827;28;20491;-74
2023/01/29 13:14:22;;;;;;;61.88;33.53;;;;;;;;;;5035797;28;20097;-74
2023/01/29 13:16:50;;;;;;;63.40;34.20;;;;;;;;;;5031109;28;20033;-71
2023/01/29 13:19:31;;;;;;;63.60;34.78;;;;;;;;;;5031864;28;20036;-72
2023/01/29 13:21:59;;;;;;;59.30;33.45;;;;;;;;;;5031736;28;20025;-70
2023/01/29 13:24:27;;;;;;;63.70;34.25;;;;;;;;;;5031916;28;20061;-71
2023/01/29 13:26:53;;;;;;;57.90;34.08;;;;;;;;;;5031415;28;20391;-71
2023/01/29 13:29:20;;;;;;;68.97;35.47;;;;;;;;;;5031348;28;20044;-72
2023/01/29 13:31:47;;;;;;;68.80;36.97;;;;;;;;;;5031585;28;20033;-72
2023/01/29 13:34:13;;;;;;;64.78;36.60;;;;;;;;;;5031553;28;20029;-71
2023/01/29 13:36:43;;;;;;;61.28;35.80;;;;;;;;;;5030960;28;20030;-72
2023/01/29 13:39:16;;;;;;;63.85;36.20;;;;;;;;;;5031425;28;20075;-72
2023/01/29 13:41:43;;;;;;;67.18;39.15;;;;;;;;;;5031409;28;20100;-72
2023/01/29 13:44:20;;;;;;;74.63;37.28;;;;;;;;;;5031526;28;20026;-72
2023/01/29 13:46:54;;;;;;;64.25;35.42;;;;;;;;;;5030834;28;20021;-72
2023/01/29 13:49:40;;;;;;;62.90;37.17;;;;;;;;;;5031401;28;20018;-72
2023/01/29 13:52:25;;;;;;;62.13;36.97;;;;;;;;;;5031027;28;20033;-71
2023/01/29 13:54:53;;;;;;;75.63;37.70;;;;;;;;;;5031236;28;20031;-73
2023/01/29 13:57:34;;;;;;;66.50;38.28;;;;;;;;;;5031136;28;20309;-74
2023/01/29 14:00:00;;;;;;;66.18;37.97;;;;;;;;;;5031451;28;20025;-74
2023/01/29 14:02:27;;;;;;;64.75;38.55;;;;;;;;;;5031367;28;20029;-74
2023/01/29 14:05:13;;;;;;;65.30;37.25;;;;;;;;;;5031631;28;20036;-74
2023/01/29 14:07:48;;;;;;;68.10;40.45;;;;;;;;;;5032228;28;20033;-73
2023/01/29 14:10:16;;;;;;;66.78;38.08;;;;;;;;;;5032507;28;20030;-72
2023/01/29 14:12:43;;;;;;;66.75;37.88;;;;;;;;;;5031300;28;20021;-74
2023/01/29 14:15:18;;;;;;;71.43;38.63;;;;;;;;;;5031679;28;20561;-71
2023/01/29 14:17:59;;;;;;;73.95;38.75;;;;;;;;;;5030665;28;20026;-72
2023/01/29 14:20:33;;;;;;;74.03;39.08;;;;;;;;;;5032101;28;20425;-73
2023/01/29 14:23:00;;;;;;;51.88;29.00;;;;;;;;;;5035711;28;20089;-76
2023/01/29 14:25:31;;;;;;;80.47;39.50;;;;;;;;;;5035674;28;20027;-75
2023/01/29 14:27:58;;;;;;;71.57;38.67;;;;;;;;;;5032424;28;20589;-73
2023/01/29 14:30:25;;;;;;;68.85;38.83;;;;;;;;;;5034360;28;20522;-72
2023/01/29 14:32:51;;;;;;;69.18;39.33;;;;;;;;;;5036144;28;20030;-74
2023/01/29 14:35:19;;;;;;;70.70;40.13;;;;;;;;;;5029468;28;20308;-72
2023/01/29 14:37:47;;;;;;;75.88;38.83;;;;;;;;;;5034138;28;20039;-73
2023/01/29 14:40:18;;;;;;;63.92;36.72;;;;;;;;;;5034844;28;20029;-74
2023/01/29 14:42:51;;;;;;;64.68;38.83;;;;;;;;;;5036096;28;20371;-75
2023/01/29 14:45:37;;;;;;;67.20;38.03;;;;;;;;;;5034927;28;20022;-74
2023/01/29 14:48:09;;;;;;;63.40;37.58;;;;;;;;;;5035211;28;20479;-74
2023/01/29 14:50:35;;;;;;;67.15;37.90;;;;;;;;;;5034359;28;20479;-74
2023/01/29 14:53:04;;;;;;;68.88;40.50;;;;;;;;;;5033259;28;20079;-75
2023/01/29 14:55:35;;;;;;;64.63;37.05;;;;;;;;;;5034390;28;20033;-74
2023/01/29 14:58:02;;;;;;;65.05;39.13;;;;;;;;;;5034193;28;20087;-74
2023/01/29 15:00:29;;;;;;;73.45;40.03;;;;;;;;;;5034544;28;20072;-73